Time;durP1;ratioP1;P1;durP2;ratioP2;P2;SDS_P1;SDS_P2;PMS_P1;PMS_P2;Temp;Humidity;BMP_temperature;BMP_pressure;BME280_temperature;BME280_humidity;BME280_pressure;Samples;Min_cycle;Max_cycle;Signal;HPM_P1;HPM_P2
2022/11/08 00:01:49;;;;;;;17.40;8.98;;;;;;;17.43;100.00;101419.69;2087876;28;20075;-71
2022/11/08 00:03:12;;;;;;;22.15;9.20;;;;;;;17.40;100.00;101412.56;2088539;28;20104;-72
2022/11/08 00:04:34;;;;;;;19.52;9.60;;;;;;;17.40;100.00;101415.25;2101954;28;20052;-71
2022/11/08 00:14:21;;;;;;;20.65;8.63;;;;;;;17.35;100.00;101414.38;2104399;28;20395;-71
2022/11/08 00:15:44;;;;;;;23.30;9.52;;;;;;;17.36;100.00;101413.47;2096099;28;20147;-71
2022/11/08 00:17:07;;;;;;;23.25;8.88;;;;;;;17.37;100.00;101417.03;2107588;28;20044;-71
2022/11/08 00:18:30;;;;;;;49.85;10.48;;;;;;;17.38;100.00;101417.03;2096049;28;20173;-72
2022/11/08 00:19:53;;;;;;;22.58;9.00;;;;;;;17.39;100.00;101413.47;2098859;28;20098;-71
2022/11/08 00:21:15;;;;;;;19.42;8.70;;;;;;;17.40;100.00;101415.25;2101673;28;20044;-72
2022/11/08 00:22:38;;;;;;;15.63;8.13;;;;;;;17.42;100.00;101416.13;2093420;28;20079;-72
2022/11/08 00:24:00;;;;;;;14.45;8.07;;;;;;;17.45;100.00;101405.47;2084543;28;20412;-71
2022/11/08 00:25:23;;;;;;;19.83;8.25;;;;;;;17.47;100.00;101414.34;2107425;28;20039;-71
2022/11/08 00:26:52;;;;;;;23.85;8.82;;;;;;;17.47;100.00;101421.44;2103842;28;20401;-71
2022/11/08 00:28:15;;;;;;;21.45;8.45;;;;;;;17.46;100.00;101415.22;2093842;28;20053;-71
2022/11/08 00:29:37;;;;;;;19.30;8.18;;;;;;;17.46;100.00;101411.66;2092534;28;20686;-70
2022/11/08 00:31:05;;;;;;;21.85;8.88;;;;;;;17.44;100.00;101421.47;2092737;28;20049;-71
2022/11/08 00:32:28;;;;;;;21.88;8.02;;;;;;;17.44;100.00;101403.69;2101695;28;20055;-70
2022/11/08 00:33:49;;;;;;;22.55;8.38;;;;;;;17.46;100.00;101411.66;2108909;28;20048;-70
2022/11/08 00:35:12;;;;;;;23.77;9.00;;;;;;;17.44;100.00;101410.81;2095160;28;20080;-70
2022/11/08 00:36:33;;;;;;;19.48;8.60;;;;;;;17.43;100.00;101409.00;2099036;28;20492;-70
2022/11/08 00:37:56;;;;;;;19.73;7.80;;;;;;;17.43;100.00;101417.91;2100534;28;20135;-71
2022/11/08 00:39:17;;;;;;;23.75;10.82;;;;;;;17.42;100.00;101410.78;2103163;28;20064;-71
2022/11/08 00:40:39;;;;;;;18.45;8.05;;;;;;;17.44;100.00;101409.03;2105168;28;20068;-70
2022/11/08 00:42:03;;;;;;;20.40;8.43;;;;;;;17.46;100.00;101412.56;2105154;28;20144;-71
2022/11/08 00:43:26;;;;;;;23.00;8.68;;;;;;;17.46;100.00;101400.97;2092678;28;20454;-70
2022/11/08 00:44:48;;;;;;;20.15;8.55;;;;;;;17.48;100.00;101410.78;2101611;28;20077;-71
2022/11/08 00:46:09;;;;;;;17.98;8.00;;;;;;;17.48;100.00;101394.75;2095160;28;20145;-71
2022/11/08 00:47:32;;;;;;;20.17;8.50;;;;;;;17.45;100.00;101402.78;2100163;28;20047;-71
2022/11/08 00:48:53;;;;;;;19.52;9.05;;;;;;;17.44;100.00;101400.13;2095305;28;20040;-70
2022/11/08 00:50:16;;;;;;;19.17;8.10;;;;;;;17.42;100.00;101397.44;2100825;28;20416;-70
2022/11/08 00:51:37;;;;;;;18.33;8.88;;;;;;;17.44;100.00;101397.44;2094882;28;20036;-70
2022/11/08 00:53:00;;;;;;;25.33;9.50;;;;;;;17.43;100.00;101395.66;2101035;28;20040;-71
2022/11/08 00:54:23;;;;;;;21.08;8.82;;;;;;;17.41;100.00;101398.34;2093831;28;20053;-70
2022/11/08 00:55:44;;;;;;;21.88;8.65;;;;;;;17.40;100.00;101401.00;2106738;28;20077;-71
2022/11/08 00:57:08;;;;;;;21.73;8.75;;;;;;;17.41;100.00;101395.66;2100808;28;20051;-71
2022/11/08 00:58:29;;;;;;;20.90;10.50;;;;;;;17.39;100.00;101386.75;2100845;28;20056;-71
2022/11/08 00:59:51;;;;;;;22.38;8.65;;;;;;;17.37;100.00;101393.91;2095069;28;20044;-71
2022/11/08 01:01:15;;;;;;;21.02;8.52;;;;;;;17.33;100.00;101393.91;2097992;28;20086;-70
2022/11/08 01:02:37;;;;;;;23.27;9.38;;;;;;;17.29;100.00;101385.03;2092530;28;20519;-71
2022/11/08 01:03:58;;;;;;;20.25;9.10;;;;;;;17.27;100.00;101388.56;2092337;28;20052;-71
2022/11/08 01:05:21;;;;;;;20.42;8.90;;;;;;;17.26;100.00;101397.50;2092444;28;20040;-70
2022/11/08 01:06:44;;;;;;;18.00;8.48;;;;;;;17.25;100.00;101391.25;2092367;28;20045;-70
2022/11/08 01:08:05;;;;;;;31.55;9.93;;;;;;;17.24;100.00;101397.50;2094969;28;20048;-70
2022/11/08 01:09:28;;;;;;;18.70;8.55;;;;;;;17.22;100.00;101393.03;2100780;28;20413;-71
2022/11/08 01:10:50;;;;;;;21.35;9.60;;;;;;;17.20;100.00;101390.34;2086726;28;20045;-71
2022/11/08 01:12:14;;;;;;;22.75;10.27;;;;;;;17.20;100.00;101393.03;2096422;28;20055;-70
2022/11/08 01:13:37;;;;;;;19.98;9.18;;;;;;;17.24;100.00;101394.81;2100351;28;20028;-70
2022/11/08 01:15:00;;;;;;;20.80;9.95;;;;;;;17.25;100.00;101395.72;2092065;28;20489;-70
2022/11/08 01:16:23;;;;;;;20.50;9.63;;;;;;;17.27;100.00;101399.25;2091814;28;20052;-70
2022/11/08 01:17:46;;;;;;;20.55;9.55;;;;;;;17.29;100.00;101401.03;2091739;28;20400;-71
2022/11/08 01:19:08;;;;;;;20.52;10.40;;;;;;;17.28;100.00;101393.03;2100375;28;20048;-71
2022/11/08 01:20:29;;;;;;;19.35;9.13;;;;;;;17.27;100.00;101385.91;2095119;28;20148;-70
2022/11/08 01:21:52;;;;;;;20.15;10.13;;;;;;;17.27;100.00;101400.13;2092174;28;20052;-71
2022/11/08 01:23:14;;;;;;;20.05;9.98;;;;;;;17.29;100.00;101386.78;2091820;28;20132;-71
2022/11/08 01:24:36;;;;;;;;;;;;;;;17.27;100.00;101392.13;2098241;28;20036;-70
2022/11/08 01:26:02;;;;;;;26.30;10.25;;;;;;;17.29;100.00;101395.69;2100198;28;19920;-70
2022/11/08 01:27:26;;;;;;;24.05;9.50;;;;;;;17.30;100.00;101394.81;2098231;28;20106;-70
2022/11/08 01:28:47;;;;;;;30.33;9.35;;;;;;;17.26;100.00;101398.38;2106638;28;20531;-70
2022/11/08 01:30:10;;;;;;;17.23;9.07;;;;;;;17.24;100.00;101383.25;2101141;28;20440;-70
2022/11/08 01:31:33;;;;;;;22.08;10.57;;;;;;;17.23;100.00;101392.16;2099602;28;20120;-70
2022/11/08 01:32:54;;;;;;;19.98;10.75;;;;;;;17.23;100.00;101387.69;2092386;28;20494;-70
2022/11/08 01:34:17;;;;;;;26.15;10.88;;;;;;;17.25;100.00;101383.25;2097480;28;20056;-70
2022/11/08 01:35:39;;;;;;;20.80;9.38;;;;;;;17.28;100.00;101395.69;2096587;28;20450;-70
2022/11/08 01:37:01;;;;;;;22.40;10.15;;;;;;;17.26;100.00;101393.06;2094806;28;20045;-70
2022/11/08 01:38:22;;;;;;;30.15;10.13;;;;;;;17.25;100.00;101391.25;2095169;28;20576;-70
2022/11/08 01:39:45;;;;;;;21.38;10.05;;;;;;;17.22;100.00;101391.25;2096682;28;20488;-71
2022/11/08 01:41:08;;;;;;;25.98;10.82;;;;;;;17.20;100.00;101395.69;2093410;28;20074;-71
2022/11/08 01:42:31;;;;;;;26.10;10.68;;;;;;;17.18;100.00;101397.50;2094895;28;20651;-70
2022/11/08 01:43:55;;;;;;;21.90;9.57;;;;;;;17.16;100.00;101393.03;2088824;28;20048;-70
2022/11/08 01:45:49;;;;;;;22.75;8.75;;;;;;;17.12;100.00;101387.72;2088844;28;20575;-70
2022/11/08 01:47:11;;;;;;;22.25;10.48;;;;;;;17.11;100.00;101387.72;2067870;28;20164;-71
2022/11/08 01:48:33;;;;;;;25.52;10.07;;;;;;;17.11;100.00;101383.28;2100965;28;20135;-70
2022/11/08 01:49:58;;;;;;;20.70;9.85;;;;;;;17.10;100.00;101385.94;2097122;28;20055;-70
2022/11/08 01:51:25;;;;;;;23.02;9.35;;;;;;;17.09;100.00;101377.03;2095146;28;20151;-70
2022/11/08 01:52:51;;;;;;;21.90;9.90;;;;;;;17.09;100.00;101382.38;2087168;28;20056;-70
2022/11/08 01:54:19;;;;;;;23.02;9.25;;;;;;;17.09;100.00;101385.06;2093841;28;20050;-70
2022/11/08 01:55:41;;;;;;;17.95;9.05;;;;;;;17.07;100.00;101380.59;2095432;28;20114;-70
2022/11/08 01:57:07;;;;;;;19.88;9.18;;;;;;;17.06;100.00;101387.75;2080959;28;20160;-69
2022/11/08 01:58:36;;;;;;;22.73;11.23;;;;;;;17.09;100.00;101392.16;2080948;28;20059;-70
2022/11/08 02:00:02;;;;;;;22.38;9.43;;;;;;;17.10;100.00;101381.50;2093721;28;20164;-70
2022/11/08 02:01:30;;;;;;;18.58;9.50;;;;;;;17.12;100.00;101384.16;2089398;28;20055;-70
2022/11/08 02:03:01;;;;;;;26.45;10.30;;;;;;;17.16;100.00;101388.59;2092307;28;20056;-70
2022/11/08 02:04:22;;;;;;;21.25;10.40;;;;;;;17.20;100.00;101382.34;2095543;28;20374;-72
2022/11/08 02:05:45;;;;;;;29.35;10.90;;;;;;;17.25;100.00;101372.59;2097073;28;20045;-72
2022/11/08 02:07:08;;;;;;;21.85;9.18;;;;;;;17.24;100.00;101362.78;2096995;28;20044;-72
2022/11/08 02:08:34;;;;;;;18.05;9.45;;;;;;;17.22;100.00;101369.91;2094916;28;20141;-70
2022/11/08 02:09:57;;;;;;;20.73;9.70;;;;;;;17.18;100.00;101367.25;2095054;28;20101;-72
2022/11/08 02:11:19;;;;;;;19.63;8.68;;;;;;;17.12;100.00;101363.72;2086447;28;20084;-72
2022/11/08 02:12:41;;;;;;;20.00;9.75;;;;;;;17.07;100.00;101370.81;2078215;28;20103;-72
2022/11/08 02:14:06;;;;;;;20.25;9.25;;;;;;;17.03;100.00;101370.81;2095826;28;20101;-73
2022/11/08 02:15:28;;;;;;;26.27;10.48;;;;;;;16.97;100.00;101369.06;2094911;28;20505;-72
2022/11/08 02:16:49;;;;;;;20.67;9.90;;;;;;;16.93;100.00;101371.75;2086441;28;20472;-72
2022/11/08 02:18:13;;;;;;;20.67;10.02;;;;;;;16.88;100.00;101368.16;2085936;28;20491;-72
2022/11/08 02:19:41;;;;;;;25.75;9.15;;;;;;;16.84;100.00;101364.63;2087784;28;20057;-72
2022/11/08 02:21:09;;;;;;;24.83;9.95;;;;;;;16.83;100.00;101369.94;2086972;28;20082;-72
2022/11/08 02:22:37;;;;;;;22.60;9.82;;;;;;;16.82;100.00;101379.72;2087034;28;20389;-70
2022/11/08 02:24:07;;;;;;;22.92;10.25;;;;;;;16.85;100.00;101376.19;2095196;28;20097;-70
2022/11/08 02:25:28;;;;;;;20.83;9.75;;;;;;;16.83;100.00;101368.19;2082169;28;20049;-70
2022/11/08 02:26:53;;;;;;;21.10;9.05;;;;;;;16.82;100.00;101362.84;2092606;28;20051;-70
2022/11/08 02:28:15;;;;;;;24.63;10.48;;;;;;;16.83;100.00;101372.63;2101699;28;20507;-70
2022/11/08 02:29:36;;;;;;;22.45;10.23;;;;;;;16.84;100.00;101369.97;2088902;28;20098;-70
2022/11/08 02:30:59;;;;;;;22.30;9.48;;;;;;;16.83;100.00;101370.84;2087866;28;20135;-70
2022/11/08 02:32:22;;;;;;;17.27;9.05;;;;;;;16.84;100.00;101369.06;2091603;28;20110;-70
2022/11/08 02:33:45;;;;;;;20.08;8.85;;;;;;;16.83;100.00;101369.94;2086123;28;20418;-70
2022/11/08 02:35:12;;;;;;;18.83;8.95;;;;;;;16.83;100.00;101368.19;2086282;28;20140;-70
2022/11/08 02:36:33;;;;;;;20.33;9.55;;;;;;;16.82;100.00;101365.50;2096862;28;20044;-70
2022/11/08 02:37:55;;;;;;;22.00;9.82;;;;;;;16.83;100.00;101373.50;2090160;28;20049;-70
2022/11/08 02:39:18;;;;;;;27.67;10.27;;;;;;;16.83;100.00;101372.63;2078204;28;20045;-70
2022/11/08 02:40:48;;;;;;;21.70;9.10;;;;;;;16.82;100.00;101366.41;2092808;28;20594;-70
2022/11/08 02:42:14;;;;;;;27.92;9.82;;;;;;;16.81;100.00;101371.72;2089050;28;20140;-70
2022/11/08 02:43:35;;;;;;;19.67;9.50;;;;;;;16.80;100.00;101370.84;2084618;28;20118;-70
2022/11/08 02:44:57;;;;;;;23.70;10.43;;;;;;;16.79;100.00;101370.84;2082655;28;20049;-70
2022/11/08 02:46:19;;;;;;;25.02;9.52;;;;;;;16.78;100.00;101374.41;2087993;28;20045;-70
2022/11/08 02:47:41;;;;;;;18.00;8.20;;;;;;;16.76;100.00;101376.16;2086618;28;20456;-70
2022/11/08 02:49:02;;;;;;;18.90;9.20;;;;;;;16.74;100.00;101369.06;2084190;28;20105;-70
2022/11/08 02:50:25;;;;;;;23.10;9.30;;;;;;;16.71;100.00;101369.06;2087687;28;20041;-70
2022/11/08 02:51:47;;;;;;;20.40;8.15;;;;;;;16.68;100.00;101365.50;2086298;28;20483;-72
2022/11/08 02:53:10;;;;;;;22.55;9.27;;;;;;;16.66;100.00;101361.97;2091483;28;20378;-72
2022/11/08 02:54:34;;;;;;;19.25;8.90;;;;;;;16.66;100.00;101364.63;2100775;28;20048;-72
2022/11/08 02:55:55;;;;;;;21.17;8.85;;;;;;;16.64;100.00;101361.97;2089719;28;20408;-70
2022/11/08 02:57:17;;;;;;;22.15;8.85;;;;;;;16.63;100.00;101360.16;2091263;28;20040;-70
2022/11/08 02:58:39;;;;;;;26.52;9.48;;;;;;;16.61;100.00;101359.28;2099395;28;20138;-70
2022/11/08 03:00:01;;;;;;;23.77;9.45;;;;;;;16.59;100.00;101366.38;2080444;28;20053;-69
2022/11/08 03:01:23;;;;;;;19.60;8.88;;;;;;;16.60;100.00;101362.84;2077390;28;20084;-69
2022/11/08 03:02:50;;;;;;;22.67;10.50;;;;;;;16.59;100.00;101357.47;2086590;28;20037;-70
2022/11/08 03:04:11;;;;;;;20.50;8.30;;;;;;;16.60;100.00;101357.53;2094795;28;20059;-70
2022/11/08 03:05:34;;;;;;;19.65;8.25;;;;;;;16.63;100.00;101376.16;2099673;28;20068;-69
2022/11/08 03:06:56;;;;;;;18.90;8.02;;;;;;;16.65;100.00;101366.41;2096586;28;20159;-69
2022/11/08 03:08:18;;;;;;;18.48;8.98;;;;;;;16.67;100.00;101371.75;2095301;28;20040;-70
2022/11/08 03:09:43;;;;;;;22.77;9.35;;;;;;;16.67;100.00;101355.75;2096847;28;20053;-70
2022/11/08 03:11:04;;;;;;;18.42;8.48;;;;;;;16.64;100.00;101375.28;2100241;28;20093;-69
2022/11/08 03:12:26;;;;;;;18.85;9.80;;;;;;;16.64;100.00;101361.97;2102506;28;20040;-70
2022/11/08 03:13:48;;;;;;;23.77;11.15;;;;;;;16.66;100.00;101367.28;2094165;28;20082;-70
2022/11/08 03:15:13;;;;;;;20.83;8.90;;;;;;;16.69;100.00;101368.16;2099368;28;20278;-70
2022/11/08 03:16:35;;;;;;;17.88;7.93;;;;;;;16.71;100.00;101369.06;2094427;28;20086;-70
2022/11/08 03:17:58;;;;;;;25.88;9.65;;;;;;;16.71;100.00;101366.41;2094345;28;20135;-70
2022/11/08 03:19:21;;;;;;;18.10;9.50;;;;;;;16.67;100.00;101363.75;2098193;28;20446;-69
2022/11/08 03:20:42;;;;;;;21.35;8.57;;;;;;;16.65;100.00;101370.84;2092753;28;20131;-70
2022/11/08 03:22:04;;;;;;;18.65;8.25;;;;;;;16.63;100.00;101373.50;2093934;28;20045;-70
2022/11/08 03:23:26;;;;;;;21.40;7.88;;;;;;;16.62;100.00;101369.06;2096701;28;20049;-70
2022/11/08 03:24:50;;;;;;;19.42;7.90;;;;;;;16.61;100.00;101377.94;2088465;28;20044;-70
2022/11/08 03:26:11;;;;;;;18.20;7.80;;;;;;;16.60;100.00;101378.84;2094264;28;20080;-70
2022/11/08 03:27:33;;;;;;;21.25;8.10;;;;;;;16.61;100.00;101377.03;2088417;28;20787;-71
2022/11/08 03:28:56;;;;;;;18.27;7.88;;;;;;;16.63;100.00;101373.50;2093612;28;20066;-71
2022/11/08 03:30:18;;;;;;;16.95;8.13;;;;;;;16.70;100.00;101380.63;2088665;28;20087;-69
2022/11/08 03:31:41;;;;;;;15.25;7.68;;;;;;;16.77;100.00;101377.94;2094134;28;20161;-70
2022/11/08 03:33:02;;;;;;;18.33;8.15;;;;;;;16.81;100.00;101382.38;2088121;28;20081;-72
2022/11/08 03:34:25;;;;;;;17.65;8.77;;;;;;;16.82;100.00;101386.84;2092664;28;20040;-72
2022/11/08 03:35:47;;;;;;;20.20;9.23;;;;;;;16.82;100.00;101382.41;2094755;28;20045;-72
2022/11/08 03:37:10;;;;;;;24.77;9.50;;;;;;;16.82;100.00;101389.50;2104944;28;20463;-72
2022/11/08 03:38:31;;;;;;;21.33;9.75;;;;;;;16.80;100.00;101396.63;2102536;28;20044;-72
2022/11/08 03:39:56;;;;;;;21.23;10.07;;;;;;;16.84;100.00;101395.72;2088151;28;20060;-72
2022/11/08 03:41:18;;;;;;;23.67;8.60;;;;;;;16.86;100.00;101383.31;2085434;28;20049;-72
2022/11/08 03:42:39;;;;;;;30.38;13.52;;;;;;;16.87;100.00;101398.41;2095307;28;20051;-72
2022/11/08 03:44:02;;;;;;;24.63;10.40;;;;;;;16.91;100.00;101410.84;2091064;28;20080;-72
2022/11/08 03:45:23;;;;;;;26.17;9.60;;;;;;;16.94;100.00;101405.50;2093626;28;20045;-72
2022/11/08 03:46:45;;;;;;;18.65;9.07;;;;;;;16.96;100.00;101409.06;2101444;28;20067;-72
2022/11/08 03:48:07;;;;;;;20.65;8.27;;;;;;;16.95;100.00;101410.84;2096634;28;20056;-72
2022/11/08 03:49:29;;;;;;;21.67;9.50;;;;;;;16.93;100.00;101404.63;2097856;28;20048;-72
2022/11/08 03:50:52;;;;;;;20.27;9.40;;;;;;;16.93;100.00;101409.09;2088213;28;20140;-72
2022/11/08 03:52:14;;;;;;;23.17;9.63;;;;;;;16.92;100.00;101407.31;2082995;28;20060;-72
2022/11/08 03:53:35;;;;;;;20.45;8.65;;;;;;;16.89;100.00;101404.63;2082431;28;20061;-73
2022/11/08 03:54:59;;;;;;;20.17;8.07;;;;;;;16.89;100.00;101405.50;2090967;28;20459;-72
2022/11/08 03:56:22;;;;;;;22.73;10.73;;;;;;;16.90;100.00;101414.41;2093850;28;20093;-72
2022/11/08 03:57:45;;;;;;;19.98;9.45;;;;;;;16.90;100.00;101406.41;2084641;28;20045;-72
2022/11/08 03:59:08;;;;;;;19.67;9.98;;;;;;;16.90;100.00;101417.97;2091134;28;20059;-72
2022/11/08 04:00:29;;;;;;;28.23;10.13;;;;;;;16.90;100.00;101414.41;2085610;28;20075;-70
2022/11/08 04:01:52;;;;;;;22.30;8.88;;;;;;;16.89;100.00;101420.63;2085566;28;20044;-70
2022/11/08 04:03:14;;;;;;;21.17;9.20;;;;;;;16.88;100.00;101410.84;2094635;28;20479;-70
2022/11/08 04:04:35;;;;;;;18.52;9.02;;;;;;;16.87;100.00;101414.41;2087600;28;20052;-69
2022/11/08 04:06:00;;;;;;;29.08;11.82;;;;;;;16.85;100.00;101411.75;2093474;28;20060;-70
2022/11/08 04:07:22;;;;;;;16.00;8.98;;;;;;;16.83;100.00;101417.94;2088087;28;20568;-70
2022/11/08 04:08:44;;;;;;;26.88;12.60;;;;;;;16.80;100.00;101412.63;2079199;28;20592;-70
2022/11/08 04:10:08;;;;;;;21.95;10.55;;;;;;;16.78;100.00;101422.41;2083097;28;20049;-70
2022/11/08 04:16:35;;;;;;;22.10;10.05;;;;;;;16.62;100.00;101425.03;2080732;28;20056;-70
2022/11/08 04:21:17;;;;;;;20.92;8.88;;;;;;;16.51;100.00;101426.78;2087780;28;20047;-70
2022/11/08 04:22:40;;;;;;;25.40;9.27;;;;;;;16.50;100.00;101430.31;2093926;28;20417;-70
2022/11/08 04:24:02;;;;;;;17.77;8.55;;;;;;;16.50;100.00;101422.31;2093698;28;20048;-71
2022/11/08 04:25:25;;;;;;;20.75;8.18;;;;;;;16.47;100.00;101422.34;2087424;28;20049;-70
2022/11/08 04:26:48;;;;;;;21.92;9.40;;;;;;;16.47;100.00;101424.09;2086472;28;20183;-70
2022/11/08 04:28:10;;;;;;;22.60;9.02;;;;;;;16.47;100.00;101430.34;2096241;28;20815;-71
2022/11/08 04:29:32;;;;;;;;;;;;;;;16.43;100.00;101431.19;2080155;28;20053;-70
2022/11/08 04:30:55;;;;;;;24.90;9.02;;;;;;;16.45;100.00;101437.41;2076225;28;20020;-70
2022/11/08 04:32:17;;;;;;;20.77;9.15;;;;;;;16.49;100.00;101438.31;2087244;28;20041;-70
2022/11/08 04:33:40;;;;;;;21.20;8.80;;;;;;;16.52;100.00;101428.56;2087820;28;20555;-70
2022/11/08 04:35:01;;;;;;;21.48;9.65;;;;;;;16.55;100.00;101433.88;2096035;28;20048;-70
2022/11/08 04:36:24;;;;;;;22.00;9.52;;;;;;;16.58;100.00;101436.56;2091289;28;20592;-71
2022/11/08 04:37:46;;;;;;;22.50;10.32;;;;;;;16.62;100.00;101437.47;2101881;28;20096;-70
2022/11/08 04:39:08;;;;;;;21.35;9.00;;;;;;;16.65;100.00;101427.72;2096049;28;20774;-70
2022/11/08 04:40:31;;;;;;;21.33;9.38;;;;;;;16.71;100.00;101437.50;2077438;28;20050;-70
2022/11/08 04:41:53;;;;;;;16.95;8.93;;;;;;;16.74;100.00;101438.38;2090136;28;20720;-70
2022/11/08 04:43:16;;;;;;;20.10;8.88;;;;;;;16.80;100.00;101437.53;2085541;28;20117;-70
2022/11/08 04:44:39;;;;;;;21.17;9.48;;;;;;;16.83;100.00;101428.63;2087068;28;20135;-70
2022/11/08 04:46:02;;;;;;;23.40;10.35;;;;;;;16.84;100.00;101435.75;2084970;28;20180;-71
2022/11/08 04:47:25;;;;;;;22.90;9.40;;;;;;;16.84;100.00;101441.06;2083946;28;20227;-71
2022/11/08 04:48:50;;;;;;;18.10;9.00;;;;;;;16.83;100.00;101434.84;2084449;28;20082;-70
2022/11/08 04:50:11;;;;;;;23.15;10.20;;;;;;;16.85;100.00;101437.53;2091681;28;20060;-70
2022/11/08 04:51:34;;;;;;;22.23;10.05;;;;;;;16.87;100.00;101441.09;2093604;28;20143;-70
2022/11/08 04:52:55;;;;;;;23.98;8.52;;;;;;;16.88;100.00;101442.84;2098866;28;20051;-70
2022/11/08 04:54:18;;;;;;;24.50;8.80;;;;;;;16.88;100.00;101446.41;2093357;28;20514;-70
2022/11/08 04:55:42;;;;;;;19.13;9.57;;;;;;;16.91;100.00;101449.09;2093311;28;20140;-70
2022/11/08 04:57:04;;;;;;;15.55;8.23;;;;;;;16.92;100.00;101447.31;2099895;28;20519;-72
2022/11/08 04:58:25;;;;;;;19.27;9.27;;;;;;;16.93;100.00;101443.75;2087806;28;20067;-71
2022/11/08 04:59:48;;;;;;;19.55;8.93;;;;;;;16.92;100.00;101442.88;2100451;28;20040;-70
2022/11/08 05:01:16;;;;;;;18.90;9.50;;;;;;;16.91;100.00;101438.41;2085845;28;20049;-71
2022/11/08 05:02:37;;;;;;;22.58;9.52;;;;;;;16.88;100.00;101432.16;2080640;28;20044;-70
2022/11/08 05:04:00;;;;;;;23.52;9.60;;;;;;;16.87;100.00;101441.94;2098108;28;20036;-71
2022/11/08 05:05:23;;;;;;;21.90;9.35;;;;;;;16.88;100.00;101435.72;2087075;28;20094;-70
2022/11/08 05:06:45;;;;;;;24.02;10.10;;;;;;;16.90;100.00;101436.63;2083054;28;20085;-70
2022/11/08 05:08:08;;;;;;;19.80;9.23;;;;;;;16.92;100.00;101440.19;2085236;28;20082;-70
2022/11/08 05:09:29;;;;;;;23.30;9.55;;;;;;;16.95;100.00;101436.63;2093649;28;20143;-70
2022/11/08 05:10:53;;;;;;;18.05;9.68;;;;;;;17.01;100.00;101441.97;2096131;28;20041;-70
2022/11/08 05:12:14;;;;;;;16.48;10.18;;;;;;;17.05;100.00;101444.66;2096189;28;20147;-70
2022/11/08 05:13:37;;;;;;;25.10;11.30;;;;;;;17.07;100.00;101444.63;2089082;28;20734;-71
2022/11/08 05:15:00;;;;;;;21.17;10.50;;;;;;;17.09;100.00;101443.75;2086876;28;20049;-70
2022/11/08 05:16:24;;;;;;;23.33;9.90;;;;;;;17.11;100.00;101441.97;2086960;28;20045;-70
2022/11/08 05:17:46;;;;;;;19.65;8.95;;;;;;;17.11;100.00;101439.31;2087110;28;20049;-70
2022/11/08 05:19:09;;;;;;;20.73;10.00;;;;;;;17.12;100.00;101443.75;2078741;28;20598;-71
2022/11/08 05:23:50;;;;;;;19.27;8.80;;;;;;;17.14;100.00;101449.97;2090962;28;20471;-70
2022/11/08 05:25:12;;;;;;;19.58;8.73;;;;;;;17.17;100.00;101456.19;2082549;28;20076;-70
2022/11/08 05:26:38;;;;;;;18.25;8.50;;;;;;;17.18;100.00;101453.53;2092439;28;20087;-70
2022/11/08 05:28:00;;;;;;;22.40;9.10;;;;;;;17.20;100.00;101459.75;2089402;28;20118;-70
2022/11/08 05:29:22;;;;;;;23.02;9.40;;;;;;;17.23;100.00;101461.53;2095781;28;20036;-70
2022/11/08 05:30:43;;;;;;;18.23;8.13;;;;;;;17.28;100.00;101462.41;2092215;28;20049;-70
2022/11/08 05:32:06;;;;;;;19.15;9.63;;;;;;;17.27;100.00;101460.63;2095359;28;20459;-70
2022/11/08 05:33:29;;;;;;;17.98;8.15;;;;;;;17.26;100.00;101462.44;2089340;28;20076;-71
2022/11/08 05:34:50;;;;;;;17.98;9.25;;;;;;;17.25;100.00;101457.97;2100869;28;20127;-70
2022/11/08 05:36:14;;;;;;;16.38;7.70;;;;;;;17.24;100.00;101456.19;2089057;28;20050;-71
2022/11/08 05:37:35;;;;;;;18.50;8.52;;;;;;;17.26;100.00;101457.09;2101358;28;20052;-71
2022/11/08 05:38:57;;;;;;;17.08;7.97;;;;;;;17.27;100.00;101471.31;2088884;28;20148;-70
2022/11/08 05:40:19;;;;;;;15.30;7.97;;;;;;;17.30;100.00;101473.97;2092185;28;20052;-71
2022/11/08 05:41:43;;;;;;;21.05;8.57;;;;;;;17.34;100.00;101475.75;2089458;28;20073;-70
2022/11/08 05:43:05;;;;;;;19.27;8.23;;;;;;;17.36;100.00;101472.19;2087646;28;20418;-71
2022/11/08 05:44:28;;;;;;;16.55;8.75;;;;;;;17.36;100.00;101472.19;2094713;28;20048;-71
2022/11/08 05:45:50;;;;;;;16.27;7.15;;;;;;;17.37;100.00;101473.97;2085942;28;20045;-70
2022/11/08 05:47:12;;;;;;;17.75;7.70;;;;;;;17.41;100.00;101482.88;2092414;28;20120;-70
2022/11/08 05:48:34;;;;;;;23.98;8.23;;;;;;;17.43;100.00;101476.66;2090207;28;20493;-70
2022/11/08 05:49:55;;;;;;;20.00;7.68;;;;;;;17.44;100.00;101467.75;2094843;28;20041;-71
2022/11/08 05:51:20;;;;;;;21.08;8.98;;;;;;;17.46;100.00;101481.97;2089250;28;20143;-70
2022/11/08 05:52:41;;;;;;;14.77;7.45;;;;;;;17.46;100.00;101476.63;2095009;28;20473;-70
2022/11/08 05:54:03;;;;;;;22.05;7.65;;;;;;;17.48;100.00;101484.63;2103063;28;20040;-70
2022/11/08 05:55:26;;;;;;;18.35;8.43;;;;;;;17.51;100.00;101479.31;2098524;28;20055;-70
2022/11/08 05:56:49;;;;;;;26.35;8.40;;;;;;;17.55;100.00;101489.09;2093799;28;20086;-70
2022/11/08 05:58:12;;;;;;;17.95;8.40;;;;;;;17.56;100.00;101488.19;2097686;28;20055;-71
2022/11/08 05:59:34;;;;;;;22.17;9.95;;;;;;;17.58;100.00;101482.88;2089142;28;20049;-70
2022/11/08 06:01:00;;;;;;;22.73;8.70;;;;;;;17.61;100.00;101490.88;2092544;28;20045;-70
2022/11/08 06:02:22;;;;;;;17.38;7.93;;;;;;;17.63;100.00;101489.13;2087187;28;20053;-70
2022/11/08 06:03:45;;;;;;;19.00;7.82;;;;;;;17.66;100.00;101494.44;2073980;28;20049;-70
2022/11/08 06:05:08;;;;;;;16.20;7.60;;;;;;;17.70;100.00;101485.53;2092548;28;20060;-70
2022/11/08 06:06:30;;;;;;;18.63;7.47;;;;;;;17.72;100.00;101489.09;2089205;28;20061;-71
2022/11/08 06:07:53;;;;;;;16.15;7.55;;;;;;;17.73;100.00;101497.09;2086376;28;20096;-71
2022/11/08 06:09:15;;;;;;;21.73;7.47;;;;;;;17.75;100.00;101491.75;2080932;28;20046;-70
2022/11/08 06:10:37;;;;;;;17.48;8.00;;;;;;;17.75;100.00;101492.66;2090836;28;20048;-71
2022/11/08 06:12:01;;;;;;;17.90;7.90;;;;;;;17.76;100.00;101502.44;2080779;28;20607;-70
2022/11/08 06:13:24;;;;;;;22.40;8.13;;;;;;;17.80;100.00;101503.31;2087437;28;20139;-71
2022/11/08 06:14:46;;;;;;;23.05;7.38;;;;;;;17.82;100.00;101497.09;2102957;28;20040;-70
2022/11/08 06:16:11;;;;;;;16.50;6.82;;;;;;;17.86;100.00;101504.19;2097121;28;20075;-71
2022/11/08 06:17:34;;;;;;;16.38;7.55;;;;;;;17.88;100.00;101489.06;2102233;28;20058;-71
2022/11/08 06:18:56;;;;;;;16.55;5.97;;;;;;;17.87;100.00;101497.06;2089008;28;20040;-70
2022/11/08 06:20:18;;;;;;;21.10;6.72;;;;;;;17.81;100.00;101492.63;2098508;28;20108;-71
2022/11/08 06:21:40;;;;;;;17.33;6.85;;;;;;;17.77;100.00;101498.88;2097388;28;20045;-70
2022/11/08 06:23:01;;;;;;;18.00;6.63;;;;;;;17.82;100.00;101501.53;2097002;28;20052;-70
2022/11/08 06:24:24;;;;;;;19.88;6.72;;;;;;;17.89;100.00;101501.53;2090435;28;20045;-70
2022/11/08 06:25:47;;;;;;;16.65;6.30;;;;;;;17.97;100.00;101497.94;2086113;28;20138;-71
2022/11/08 06:27:11;;;;;;;20.08;6.82;;;;;;;18.03;100.00;101496.16;2088435;28;20409;-71
2022/11/08 06:28:34;;;;;;;16.83;6.47;;;;;;;18.06;100.00;101504.13;2088261;28;20041;-70
2022/11/08 06:29:57;;;;;;;16.35;6.85;;;;;;;18.08;100.00;101505.03;2080820;28;20046;-70
2022/11/08 06:31:19;;;;;;;20.92;7.22;;;;;;;18.13;100.00;101502.31;2091783;28;20053;-71
2022/11/08 06:32:42;;;;;;;17.38;7.28;;;;;;;18.16;100.00;101503.22;2081956;28;20180;-70
2022/11/08 06:34:03;;;;;;;17.48;6.60;;;;;;;18.21;100.00;101501.41;2087701;28;20191;-70
2022/11/08 06:35:26;;;;;;;16.15;6.20;;;;;;;18.27;100.00;101501.38;2079979;28;20056;-70
2022/11/08 06:36:48;;;;;;;18.80;6.55;;;;;;;18.32;100.00;101504.03;2089116;28;20120;-70
2022/11/08 06:38:09;;;;;;;18.83;8.15;;;;;;;18.30;100.00;101504.06;2093113;28;20169;-71